Time;durP1;ratioP1;P1;durP2;ratioP2;P2;SDS_P1;SDS_P2;PMS_P1;PMS_P2;Temp;Humidity;BMP_temperature;BMP_pressure;BME280_temperature;BME280_humidity;BME280_pressure;Samples;Min_cycle;Max_cycle;Signal;HPM_P1;HPM_P2
2021/10/15 00:02:00;;;;;;;25.37;12.80;;;;;;;-143.37;100.00;65745.06;5072633;28;20712;-72
2021/10/15 00:04:27;;;;;;;25.43;13.13;;;;;;;-143.37;100.00;65745.06;5073781;28;20213;-71
2021/10/15 00:06:53;;;;;;;19.57;11.33;;;;;;;-143.37;100.00;65745.06;5073376;28;20216;-71
2021/10/15 00:09:19;;;;;;;22.47;12.73;;;;;;;-143.37;100.00;65745.06;5073321;28;20284;-72
2021/10/15 00:11:46;;;;;;;21.33;12.40;;;;;;;-143.37;100.00;65745.06;5072077;28;20232;-72
2021/10/15 00:14:13;;;;;;;21.93;12.00;;;;;;;-143.37;100.00;65745.06;5071822;28;20252;-73
2021/10/15 00:16:39;;;;;;;23.60;13.67;;;;;;;-143.37;100.00;65745.06;5072902;28;20255;-72
2021/10/15 00:19:06;;;;;;;24.27;12.80;;;;;;;-143.37;100.00;65745.06;5072728;28;20661;-75
2021/10/15 00:21:33;;;;;;;23.53;12.73;;;;;;;-143.37;100.00;65745.06;5070916;28;20231;-72
2021/10/15 00:23:59;;;;;;;20.53;12.23;;;;;;;-143.37;100.00;65745.06;5072851;28;20233;-72
2021/10/15 00:26:26;;;;;;;22.17;12.50;;;;;;;-143.37;100.00;65745.06;5092758;28;20204;-72
2021/10/15 00:28:53;;;;;;;22.53;12.40;;;;;;;-143.37;100.00;65745.06;5113346;28;20763;-73
2021/10/15 00:31:19;;;;;;;22.77;12.47;;;;;;;-143.37;100.00;65745.06;5112893;28;20263;-72
2021/10/15 00:33:46;;;;;;;22.80;12.13;;;;;;;-143.37;100.00;65745.06;5113760;28;20269;-72
2021/10/15 00:36:12;;;;;;;24.37;12.50;;;;;;;-143.37;100.00;65745.06;5113212;28;20208;-72
2021/10/15 00:38:39;;;;;;;21.70;11.97;;;;;;;-143.37;100.00;65745.06;5113930;28;20271;-73
2021/10/15 00:41:05;;;;;;;23.67;11.97;;;;;;;-143.37;100.00;65745.06;5102318;28;20221;-72
2021/10/15 00:43:32;;;;;;;22.43;12.53;;;;;;;-143.37;100.00;65745.06;5096525;28;20238;-73
2021/10/15 00:45:58;;;;;;;24.53;13.00;;;;;;;-143.37;100.00;65745.06;5093992;28;20283;-73
2021/10/15 00:48:25;;;;;;;24.67;12.93;;;;;;;-143.37;100.00;65745.06;5091872;28;20211;-73
2021/10/15 00:50:52;;;;;;;26.20;13.57;;;;;;;-143.37;100.00;65745.06;5090667;28;20224;-73
2021/10/15 00:53:19;;;;;;;28.33;13.40;;;;;;;-143.37;100.00;65745.06;5092908;28;20370;-72
2021/10/15 00:55:45;;;;;;;23.83;13.40;;;;;;;-143.37;100.00;65745.06;5092387;28;20244;-73
2021/10/15 00:58:12;;;;;;;22.70;12.70;;;;;;;-143.37;100.00;65745.06;5092491;28;20222;-73
2021/10/15 01:34:45;;;;;;;24.07;11.73;;;;;;;;;;5109931;27;20548;-70
2021/10/15 01:37:12;;;;;;;26.33;12.27;;;;;;;;;;5109856;28;20684;-72
2021/10/15 01:39:38;;;;;;;24.47;14.13;;;;;;;;;;5109212;28;20294;-73
2021/10/15 01:42:05;;;;;;;29.47;14.07;;;;;;;;;;5108742;28;20311;-73
2021/10/15 01:44:31;;;;;;;25.27;12.63;;;;;;;;;;5108842;28;20290;-72
2021/10/15 01:46:58;;;;;;;36.10;14.27;;;;;;;;;;5096617;28;20232;-71
2021/10/15 01:49:24;;;;;;;22.60;13.83;;;;;;;;;;5088782;28;20291;-74
2021/10/15 01:51:50;;;;;;;29.57;13.60;;;;;;;;;;5089071;28;20249;-72
2021/10/15 01:54:17;;;;;;;25.13;13.57;;;;;;;;;;5089429;28;20315;-71
2021/10/15 01:56:43;;;;;;;21.47;11.63;;;;;;;;;;5087690;28;20295;-71
2021/10/15 01:59:10;;;;;;;25.00;12.50;;;;;;;;;;5088671;28;20200;-71
2021/10/15 02:01:36;;;;;;;25.13;14.00;;;;;;;;;;5070378;28;20369;-71
2021/10/15 02:04:03;;;;;;;29.80;13.33;;;;;;;;;;5088734;28;20567;-74
2021/10/15 02:06:29;;;;;;;26.27;13.10;;;;;;;;;;5088645;28;20730;-73
2021/10/15 02:08:56;;;;;;;22.83;13.37;;;;;;;;;;5087581;28;20227;-72
2021/10/15 02:11:22;;;;;;;21.70;12.63;;;;;;;;;;5088428;28;20311;-71
2021/10/15 02:13:49;;;;;;;25.90;12.70;;;;;;;;;;5088837;28;20264;-72
2021/10/15 02:16:15;;;;;;;23.87;12.00;;;;;;;;;;5088557;28;20287;-72
2021/10/15 02:18:41;;;;;;;23.20;13.70;;;;;;;;;;5088460;28;20559;-74
2021/10/15 02:21:08;;;;;;;25.90;13.63;;;;;;;;;;5088264;28;20303;-73
2021/10/15 02:23:34;;;;;;;23.63;12.10;;;;;;;;;;5087382;28;20311;-74
2021/10/15 02:26:01;;;;;;;20.83;12.03;;;;;;;;;;5103673;28;20756;-73
2021/10/15 02:28:27;;;;;;;22.03;11.80;;;;;;;;;;5109031;28;20291;-73
2021/10/15 02:30:53;;;;;;;29.17;11.90;;;;;;;;;;5108525;28;20304;-74
2021/10/15 02:33:20;;;;;;;23.23;12.33;;;;;;;;;;5109084;28;20635;-73
2021/10/15 02:35:46;;;;;;;20.53;11.83;;;;;;;;;;5107697;28;20755;-73
2021/10/15 02:38:13;;;;;;;17.50;11.37;;;;;;;;;;5107429;28;20665;-73
2021/10/15 02:40:40;;;;;;;23.37;12.57;;;;;;;;;;5107884;28;20231;-74
2021/10/15 02:43:06;;;;;;;23.17;11.43;;;;;;;;;;5108508;28;20228;-74
2021/10/15 02:45:37;;;;;;;24.43;12.10;;;;;;;;;;5096546;28;20291;-73
2021/10/15 02:48:04;;;;;;;19.80;10.97;;;;;;;;;;5089160;28;20247;-74
2021/10/15 02:50:30;;;;;;;20.93;12.03;;;;;;;;;;5092793;28;20507;-73
2021/10/15 02:52:56;;;;;;;19.07;10.90;;;;;;;;;;5093224;28;20291;-73
2021/10/15 02:55:23;;;;;;;20.83;10.87;;;;;;;;;;5094989;28;20732;-74
2021/10/15 02:57:49;;;;;;;22.70;12.20;;;;;;;;;;5095250;28;20291;-73
2021/10/15 03:00:15;;;;;;;20.13;12.20;;;;;;;;;;5093749;28;20240;-72
2021/10/15 03:02:42;;;;;;;21.33;11.83;;;;;;;;;;5094746;28;20211;-71
2021/10/15 03:05:08;;;;;;;25.63;12.63;;;;;;;;;;5093326;28;20200;-72
2021/10/15 03:07:35;;;;;;;23.27;12.73;;;;;;;;;;5093624;28;20292;-73
2021/10/15 03:10:01;;;;;;;22.90;12.90;;;;;;;;;;5093350;28;20197;-73
2021/10/15 03:12:28;;;;;;;21.17;11.87;;;;;;;;;;5095320;28;20211;-74
2021/10/15 03:14:54;;;;;;;20.83;11.43;;;;;;;;;;5095472;28;20209;-72
2021/10/15 03:17:21;;;;;;;20.63;11.70;;;;;;;;;;5098805;28;20254;-72
2021/10/15 03:19:47;;;;;;;19.07;10.77;;;;;;;;;;5098675;28;20208;-73
2021/10/15 03:22:13;;;;;;;21.30;11.57;;;;;;;;;;5102154;28;20225;-73
2021/10/15 03:24:40;;;;;;;21.43;12.23;;;;;;;;;;5114623;28;20730;-71
2021/10/15 03:27:06;;;;;;;20.17;11.07;;;;;;;;;;5096433;28;20243;-70
2021/10/15 03:29:33;;;;;;;20.70;12.43;;;;;;;;;;5094343;28;20728;-71
2021/10/15 03:31:59;;;;;;;24.87;11.90;;;;;;;;;;5094560;28;20255;-71
2021/10/15 03:34:26;;;;;;;23.37;12.37;;;;;;;;;;5093863;28;20303;-74
2021/10/15 03:36:52;;;;;;;22.57;12.43;;;;;;;;;;5094545;28;20262;-71
2021/10/15 03:39:19;;;;;;;19.77;11.23;;;;;;;;;;5095130;28;20247;-72
2021/10/15 03:41:45;;;;;;;25.07;12.67;;;;;;;;;;5093336;28;20315;-71
2021/10/15 03:44:12;;;;;;;21.53;12.30;;;;;;;;;;5093331;28;20277;-71
2021/10/15 03:46:38;;;;;;;22.33;11.23;;;;;;;;;;5082664;28;20239;-72
2021/10/15 03:49:04;;;;;;;22.97;11.43;;;;;;;;;;5072245;28;20590;-73
2021/10/15 03:51:31;;;;;;;20.33;12.00;;;;;;;;;;5072874;28;20602;-73
2021/10/15 03:53:57;;;;;;;18.27;11.63;;;;;;;;;;5055760;28;20573;-72
2021/10/15 03:56:24;;;;;;;17.23;10.90;;;;;;;;;;5072349;28;20205;-72
2021/10/15 03:58:50;;;;;;;23.37;11.47;;;;;;;;;;5073352;28;20201;-73
2021/10/15 04:01:16;;;;;;;22.03;12.30;;;;;;;;;;5072752;28;20352;-72
2021/10/15 04:03:43;;;;;;;20.00;11.53;;;;;;;;;;5072734;28;20261;-72
2021/10/15 04:06:09;;;;;;;17.23;10.10;;;;;;;;;;5072996;28;20198;-72
2021/10/15 04:08:36;;;;;;;16.97;10.83;;;;;;;;;;5071295;28;20205;-73
2021/10/15 04:11:02;;;;;;;20.27;11.37;;;;;;;;;;5071958;28;20222;-71
2021/10/15 04:13:29;;;;;;;21.27;11.07;;;;;;;;;;5071602;28;20716;-72
2021/10/15 04:15:56;;;;;;;23.40;10.77;;;;;;;;;;5072059;28;20301;-72
2021/10/15 04:18:23;;;;;;;20.13;11.33;;;;;;;;;;5072944;28;20220;-71
2021/10/15 04:20:49;;;;;;;18.70;10.47;;;;;;;;;;5072181;28;20709;-72
2021/10/15 04:23:15;;;;;;;17.10;10.63;;;;;;;;;;5072494;28;20287;-71
2021/10/15 04:25:42;;;;;;;18.83;10.23;;;;;;;;;;5098217;28;20192;-71
2021/10/15 04:28:08;;;;;;;17.70;9.57;;;;;;;;;;5113417;27;20290;-72
2021/10/15 04:30:34;;;;;;;24.10;11.47;;;;;;;;;;5112766;28;20311;-71
2021/10/15 04:33:01;;;;;;;17.13;9.50;;;;;;;;;;5113513;28;20219;-71
2021/10/15 04:35:28;;;;;;;16.47;10.57;;;;;;;;;;5113209;28;20294;-73
2021/10/15 04:37:54;;;;;;;22.63;11.77;;;;;;;;;;5112949;28;20254;-72
2021/10/15 04:40:20;;;;;;;19.43;10.70;;;;;;;;;;5105909;28;20694;-72
2021/10/15 04:42:48;;;;;;;18.40;10.37;;;;;;;;;;5092418;28;20655;-72
2021/10/15 04:45:14;;;;;;;18.93;10.60;;;;;;;;;;5091959;28;20217;-72
2021/10/15 04:47:40;;;;;;;18.47;10.40;;;;;;;;;;5073140;28;20219;-72
2021/10/15 04:50:07;;;;;;;16.90;9.67;;;;;;;;;;5071311;28;20207;-72
2021/10/15 04:52:34;;;;;;;13.73;9.33;;;;;;;;;;5071947;28;20601;-71
2021/10/15 04:55:00;;;;;;;18.87;10.83;;;;;;;;;;5072055;28;20205;-72
2021/10/15 04:57:27;;;;;;;20.03;10.77;;;;;;;;;;5071864;28;20684;-72
2021/10/15 04:59:53;;;;;;;17.70;10.37;;;;;;;;;;5071026;28;20209;-72
2021/10/15 05:02:19;;;;;;;17.90;10.10;;;;;;;;;;5070415;28;20777;-73
2021/10/15 05:04:46;;;;;;;18.20;10.20;;;;;;;;;;5070701;28;20224;-72
2021/10/15 05:07:12;;;;;;;19.63;10.40;;;;;;;;;;5077837;28;20713;-72
2021/10/15 05:09:39;;;;;;;15.53;9.53;;;;;;;;;;5088540;28;20283;-73
2021/10/15 05:12:06;;;;;;;17.30;9.83;;;;;;;;;;5090580;28;20696;-73
2021/10/15 05:14:33;;;;;;;18.30;9.87;;;;;;;;;;5097157;28;20228;-72
2021/10/15 05:17:01;;;;;;;17.60;10.13;;;;;;;;;;5092144;28;20197;-74
2021/10/15 05:19:28;;;;;;;13.83;8.37;;;;;;;;;;5094907;28;20216;-74
2021/10/15 05:21:57;;;;;;;18.13;8.13;;;;;;;;;;5096316;28;20228;-74
2021/10/15 05:24:24;;;;;;;17.00;8.83;;;;;;;;;;5095101;28;20252;-73
2021/10/15 05:26:50;;;;;;;11.77;7.57;;;;;;;;;;5096583;28;20235;-75
2021/10/15 05:29:16;;;;;;;11.50;7.90;;;;;;;;;;5092732;28;20208;-73
2021/10/15 05:31:43;;;;;;;13.07;8.30;;;;;;;;;;5091088;28;20625;-72
2021/10/15 05:34:09;;;;;;;11.73;7.73;;;;;;;;;;5090428;28;20235;-73
2021/10/15 05:36:36;;;;;;;13.63;7.97;;;;;;;;;;5090260;28;20307;-73
2021/10/15 05:39:03;;;;;;;11.30;7.50;;;;;;;;;;5090434;28;20735;-73
2021/10/15 05:41:29;;;;;;;12.63;7.70;;;;;;;;;;5090357;28;20315;-73
2021/10/15 05:43:55;;;;;;;15.17;8.57;;;;;;;;;;5091174;28;20224;-72
2021/10/15 05:46:22;;;;;;;18.53;9.13;;;;;;;;;;5081494;28;20233;-72
2021/10/15 05:48:48;;;;;;;16.90;8.87;;;;;;;;;;5068335;28;20733;-73
2021/10/15 05:51:15;;;;;;;14.70;8.73;;;;;;;;;;5070208;28;20231;-72
2021/10/15 05:53:43;;;;;;;14.00;8.40;;;;;;;;;;5070967;28;20297;-73
2021/10/15 05:56:41;;;;;;;13.63;7.80;;;;;;;;;;5071219;28;20201;-72
2021/10/15 05:59:07;;;;;;;10.70;7.40;;;;;;;;;;5072801;28;20205;-72
2021/10/15 06:01:35;;;;;;;14.53;8.37;;;;;;;;;;5073404;28;20256;-72
2021/10/15 06:14:43;;;;;;;13.00;8.87;;;;;;;;;;5071099;28;20299;-72
2021/10/15 06:17:16;;;;;;;13.70;7.87;;;;;;;;;;5071513;28;20247;-71
2021/10/15 06:19:52;;;;;;;12.67;8.63;;;;;;;;;;5072064;28;20208;-72
2021/10/15 06:22:19;;;;;;;14.37;8.17;;;;;;;;;;5075676;28;20778;-73
2021/10/15 06:24:49;;;;;;;15.40;8.97;;;;;;;;;;5080149;28;20277;-72
2021/10/15 06:27:17;;;;;;;14.47;8.37;;;;;;;;;;5095093;28;20212;-72
2021/10/15 06:29:44;;;;;;;17.27;9.27;;;;;;;;;;5092984;28;20293;-71
2021/10/15 06:32:10;;;;;;;14.37;9.23;;;;;;;;;;5094874;28;20231;-71
2021/10/15 06:34:37;;;;;;;17.60;9.93;;;;;;;;;;5093671;28;20277;-72
2021/10/15 06:37:03;;;;;;;15.23;9.37;;;;;;;;;;5094844;28;20210;-73
2021/10/15 06:39:29;;;;;;;16.67;9.37;;;;;;;;;;5094078;28;20214;-73
2021/10/15 06:41:56;;;;;;;16.17;9.80;;;;;;;;;;5073728;28;20713;-72
2021/10/15 06:44:23;;;;;;;16.83;8.20;;;;;;;;;;5074484;28;20247;-72
2021/10/15 06:46:50;;;;;;;16.13;8.93;;;;;;;;;;5086562;28;20280;-72
2021/10/15 06:49:16;;;;;;;13.67;8.23;;;;;;;;;;5094656;28;20200;-72
2021/10/15 06:51:43;;;;;;;13.80;8.80;;;;;;;;;;5092689;28;20303;-73
2021/10/15 06:54:09;;;;;;;13.73;8.27;;;;;;;;;;5094524;28;20216;-73
2021/10/15 06:56:35;;;;;;;14.70;8.73;;;;;;;;;;5094275;28;20228;-73
2021/10/15 06:59:03;;;;;;;18.50;8.47;;;;;;;;;;5094552;28;20278;-73
2021/10/15 07:01:30;;;;;;;12.03;8.10;;;;;;;;;;5092374;28;20656;-73
2021/10/15 07:03:57;;;;;;;13.93;7.60;;;;;;;;;;5094189;28;20571;-71
2021/10/15 07:06:24;;;;;;;12.07;7.67;;;;;;;;;;5094236;28;20232;-72
2021/10/15 07:08:50;;;;;;;10.40;7.50;;;;;;;;;;5092876;28;20253;-73
2021/10/15 07:11:17;;;;;;;11.63;6.80;;;;;;;;;;5093540;28;20256;-73
2021/10/15 07:13:43;;;;;;;10.87;6.93;;;;;;;;;;5094302;28;20258;-73
2021/10/15 07:16:10;;;;;;;12.23;7.13;;;;;;;;;;5093990;28;20576;-74
2021/10/15 07:18:38;;;;;;;15.40;7.30;;;;;;;;;;5093974;28;20232;-74
2021/10/15 07:21:05;;;;;;;11.50;7.63;;;;;;;;;;5093174;28;20260;-73
2021/10/15 07:23:31;;;;;;;13.00;6.53;;;;;;;;;;5093791;28;20215;-73
2021/10/15 07:25:58;;;;;;;9.93;6.33;;;;;;;;;;5093864;28;20261;-74
2021/10/15 07:28:26;;;;;;;10.93;6.93;;;;;;;;;;5092630;28;20746;-73
2021/10/15 07:30:53;;;;;;;9.60;6.30;;;;;;;;;;5093152;28;20307;-73
2021/10/15 07:33:20;;;;;;;9.63;6.17;;;;;;;;;;5093506;28;20211;-72
2021/10/15 07:35:47;;;;;;;8.30;5.87;;;;;;;;;;5094026;28;20208;-72
2021/10/15 07:38:13;;;;;;;9.93;6.90;;;;;;;;;;5093658;28;20205;-72
2021/10/15 07:40:40;;;;;;;10.60;6.33;;;;;;;;;;5097981;28;20901;-74
2021/10/15 07:43:07;;;;;;;9.07;5.60;;;;;;;;;;5098416;28;20208;-73
2021/10/15 07:45:33;;;;;;;10.47;6.73;;;;;;;;;;5097399;28;20228;-74
2021/10/15 07:48:00;;;;;;;7.77;5.40;;;;;;;;;;5076966;28;20304;-74
2021/10/15 07:50:27;;;;;;;12.57;6.27;;;;;;;;;;5072907;28;20752;-72
2021/10/15 07:52:53;;;;;;;9.33;5.83;;;;;;;;;;5073008;28;20216;-73
2021/10/15 07:55:19;;;;;;;8.47;5.80;;;;;;;;;;5072121;28;20292;-73
2021/10/15 07:57:46;;;;;;;11.67;6.70;;;;;;;;;;5073458;28;20288;-72
2021/10/15 08:00:13;;;;;;;10.80;5.97;;;;;;;;;;5072068;28;20624;-71
2021/10/15 08:02:39;;;;;;;9.83;5.83;;;;;;;;;;5072914;28;20622;-71
2021/10/15 08:05:06;;;;;;;6.07;4.90;;;;;;;;;;5072429;28;20221;-72
2021/10/15 08:07:32;;;;;;;7.17;4.37;;;;;;;;;;5072762;28;20236;-72
2021/10/15 08:09:59;;;;;;;5.07;3.93;;;;;;;;;;5072002;28;20201;-72
2021/10/15 08:12:25;;;;;;;5.07;3.83;;;;;;;;;;5072309;28;20198;-72
2021/10/15 08:14:51;;;;;;;6.30;4.00;;;;;;;;;;5071238;28;20204;-72
2021/10/15 08:17:18;;;;;;;5.40;4.00;;;;;;;;;;5072335;28;20273;-73
2021/10/15 08:19:44;;;;;;;6.70;4.43;;;;;;;;;;5071704;28;20283;-73
2021/10/15 08:22:11;;;;;;;5.83;4.03;;;;;;;;;;5072707;28;20319;-73
2021/10/15 08:24:37;;;;;;;6.90;4.00;;;;;;;;;;5076703;28;20756;-73
2021/10/15 08:27:04;;;;;;;7.60;4.13;;;;;;;;;;5092481;28;20858;-73
2021/10/15 08:29:31;;;;;;;6.17;4.60;;;;;;;;;;5092855;28;20213;-74
2021/10/15 08:31:57;;;;;;;5.73;3.77;;;;;;;;;;5093638;28;20232;-73
2021/10/15 08:34:24;;;;;;;4.93;3.77;;;;;;;;;;5096198;28;20208;-73
2021/10/15 08:36:53;;;;;;;4.95;3.60;;;;;;;;;;5096438;28;20633;-73
2021/10/15 08:39:22;;;;;;;4.82;3.67;;;;;;;;;;5097014;28;20212;-73
2021/10/15 08:41:48;;;;;;;5.45;3.55;;;;;;;;;;5095104;28;20312;-73
2021/10/15 08:44:15;;;;;;;5.47;3.65;;;;;;;;;;5092385;28;20200;-73
2021/10/15 08:46:41;;;;;;;4.85;3.60;;;;;;;;;;5092642;28;20205;-73
2021/10/15 08:49:27;;;;;;;4.82;3.17;;;;;;;;;;5091476;28;20205;-72
2021/10/15 08:51:54;;;;;;;4.35;3.40;;;;;;;;;;5092286;28;20224;-71
2021/10/15 08:54:20;;;;;;;4.13;3.30;;;;;;;;;;5091284;28;20211;-73
2021/10/15 08:56:47;;;;;;;4.28;3.20;;;;;;;;;;5091089;28;20243;-73
2021/10/15 08:59:19;;;;;;;4.18;3.63;;;;;;;;;;5092035;28;20204;-73
2021/10/15 09:01:48;;;;;;;5.18;3.70;;;;;;;;;;5091453;28;20250;-73
2021/10/15 09:04:18;;;;;;;4.75;3.63;;;;;;;;;;5092195;28;20291;-73
2021/10/15 09:06:46;;;;;;;3.55;3.20;;;;;;;;;;5091902;28;20637;-73
2021/10/15 09:09:13;;;;;;;4.50;3.67;;;;;;;;;;5091494;28;20262;-73
2021/10/15 09:11:46;;;;;;;5.15;3.58;;;;;;;;;;5089664;28;20713;-73
2021/10/15 09:14:15;;;;;;;5.38;3.47;;;;;;;;;;5090228;28;20579;-73
2021/10/15 09:16:53;;;;;;;3.75;3.08;;;;;;;;;;5091967;28;20208;-72
2021/10/15 09:19:26;;;;;;;5.32;3.60;;;;;;;;;;5091506;28;20252;-72
2021/10/15 09:22:21;;;;;;;4.05;3.42;;;;;;;;;;5091505;28;20343;-71
2021/10/15 09:24:51;;;;;;;5.68;3.60;;;;;;;;;;5071261;28;20577;-71
2021/10/15 09:27:19;;;;;;;3.97;3.38;;;;;;;;;;5090330;28;20208;-70
2021/10/15 09:29:51;;;;;;;4.72;3.17;;;;;;;;;;5090310;28;21023;-71
2021/10/15 09:32:18;;;;;;;4.43;3.20;;;;;;;;;;5090750;28;20221;-71
2021/10/15 09:34:45;;;;;;;6.57;3.58;;;;;;;;;;5089585;28;20254;-72
2021/10/15 09:37:11;;;;;;;4.60;3.17;;;;;;;;;;5091084;28;20743;-71
2021/10/15 09:39:38;;;;;;;7.50;3.58;;;;;;;;;;5090615;28;20560;-70
2021/10/15 09:42:15;;;;;;;4.03;2.92;;;;;;;;;;5091308;28;20228;-73
2021/10/15 09:44:41;;;;;;;4.57;3.15;;;;;;;;;;5091023;28;20296;-72
2021/10/15 09:47:11;;;;;;;4.05;3.20;;;;;;;;;;5076377;28;20284;-72
2021/10/15 09:49:53;;;;;;;5.07;3.20;;;;;;;;;;5070092;28;20292;-71
2021/10/15 09:52:38;;;;;;;3.78;2.63;;;;;;;;;;5071219;28;20674;-71
2021/10/15 09:55:06;;;;;;;4.78;3.30;;;;;;;;;;5072142;28;20236;-70
2021/10/15 09:57:35;;;;;;;5.50;3.42;;;;;;;;;;5074465;28;20245;-73
2021/10/15 10:00:03;;;;;;;5.15;3.50;;;;;;;;;;5072517;28;20292;-74
2021/10/15 10:02:33;;;;;;;5.55;3.67;;;;;;;;;;5074583;28;20201;-72
2021/10/15 10:05:00;;;;;;;3.17;2.70;;;;;;;;;;5074797;28;20221;-71
2021/10/15 10:07:26;;;;;;;5.80;3.58;;;;;;;;;;5074760;28;20282;-71
2021/10/15 10:09:53;;;;;;;3.72;2.75;;;;;;;;;;5074001;28;20197;-71
2021/10/15 10:12:19;;;;;;;3.50;2.72;;;;;;;;;;5074033;28;20609;-72
2021/10/15 10:14:47;;;;;;;3.30;2.83;;;;;;;;;;5074378;28;20202;-70
2021/10/15 10:17:20;;;;;;;4.15;2.85;;;;;;;;;;5074388;28;20205;-71
2021/10/15 10:19:47;;;;;;;4.33;3.10;;;;;;;;;;5073573;28;20232;-72
2021/10/15 10:22:16;;;;;;;3.77;2.93;;;;;;;;;;5074421;28;20308;-72
2021/10/15 10:24:46;;;;;;;3.93;2.70;;;;;;;;;;5078535;28;20253;-71
2021/10/15 10:27:24;;;;;;;4.60;2.93;;;;;;;;;;5094279;28;20215;-71
2021/10/15 10:29:54;;;;;;;3.37;2.50;;;;;;;;;;5093230;28;20204;-72
2021/10/15 10:32:21;;;;;;;3.53;2.50;;;;;;;;;;5093968;28;20311;-72
2021/10/15 10:34:48;;;;;;;4.60;3.00;;;;;;;;;;5093094;28;20296;-72
2021/10/15 10:37:16;;;;;;;3.43;2.80;;;;;;;;;;5093224;28;20242;-72
2021/10/15 10:40:07;;;;;;;3.50;2.70;;;;;;;;;;5093268;28;20239;-73
2021/10/15 10:42:33;;;;;;;4.60;2.30;;;;;;;;;;5094446;28;20232;-72
2021/10/15 10:45:00;;;;;;;4.07;2.97;;;;;;;;;;5094618;28;20291;-72
2021/10/15 10:47:29;;;;;;;2.93;2.50;;;;;;;;;;5076541;28;20201;-73
2021/10/15 10:50:02;;;;;;;4.27;3.17;;;;;;;;;;5073076;28;20236;-72
2021/10/15 10:52:29;;;;;;;4.50;2.90;;;;;;;;;;5073798;28;20209;-74
2021/10/15 10:54:56;;;;;;;6.40;2.90;;;;;;;;;;5072729;28;20240;-73
2021/10/15 10:57:24;;;;;;;3.33;2.50;;;;;;;;;;5073891;28;20228;-72
2021/10/15 10:59:51;;;;;;;2.57;2.03;;;;;;;;;;5072713;28;20278;-72
2021/10/15 11:02:20;;;;;;;6.00;2.50;;;;;;;;;;5072089;28;20733;-73
2021/10/15 11:04:51;;;;;;;4.33;2.70;;;;;;;;;;5073200;28;20251;-72
2021/10/15 11:07:19;;;;;;;5.33;2.87;;;;;;;;;;5073511;28;20224;-72
2021/10/15 11:09:49;;;;;;;4.23;3.10;;;;;;;;;;5073916;28;20224;-73
2021/10/15 11:12:27;;;;;;;3.70;3.17;;;;;;;;;;5075951;28;20721;-74
2021/10/15 11:14:55;;;;;;;2.87;2.53;;;;;;;;;;5076703;28;20637;-73
2021/10/15 11:17:32;;;;;;;4.40;3.13;;;;;;;;;;5075435;28;20201;-72
2021/10/15 11:20:31;;;;;;;4.00;2.63;;;;;;;;;;5073252;28;20246;-72
2021/10/15 11:23:02;;;;;;;3.73;3.10;;;;;;;;;;5061221;28;20275;-73
2021/10/15 11:25:28;;;;;;;4.20;3.10;;;;;;;;;;5082010;28;20235;-73
2021/10/15 11:27:56;;;;;;;4.33;3.17;;;;;;;;;;5093220;28;20203;-74
2021/10/15 11:30:24;;;;;;;4.80;3.10;;;;;;;;;;5091343;28;20311;-73
2021/10/15 11:32:51;;;;;;;4.70;3.57;;;;;;;;;;5092885;28;20641;-72
2021/10/15 11:35:34;;;;;;;4.87;3.27;;;;;;;;;;5093022;28;20200;-72
2021/10/15 11:38:18;;;;;;;5.67;3.60;;;;;;;;;;5092829;28;20261;-72
2021/10/15 11:40:46;;;;;;;4.67;3.40;;;;;;;;;;5092154;28;20319;-71
2021/10/15 11:43:22;;;;;;;6.90;3.80;;;;;;;;;;5092179;28;20228;-71
2021/10/15 11:45:50;;;;;;;3.50;2.87;;;;;;;;;;5087767;28;20236;-74
2021/10/15 11:48:42;;;;;;;5.47;3.57;;;;;;;;;;5072765;28;20201;-74
2021/10/15 11:51:15;;;;;;;6.70;3.60;;;;;;;;;;5071979;28;20221;-73
2021/10/15 11:53:43;;;;;;;6.13;3.40;;;;;;;;;;5072297;28;20288;-73
2021/10/15 11:56:11;;;;;;;4.20;2.63;;;;;;;;;;5072250;28;20201;-72
2021/10/15 11:58:44;;;;;;;2.73;1.60;;;;;;;;;;5087940;28;20232;-73
2021/10/15 12:01:11;;;;;;;2.73;1.63;;;;;;;;;;5090691;28;20228;-73
2021/10/15 12:03:39;;;;;;;2.00;1.60;;;;;;;;;;5092004;28;20204;-72
2021/10/15 12:06:10;;;;;;;3.00;1.53;;;;;;;;;;5090737;28;20256;-73
2021/10/15 12:08:37;;;;;;;1.92;1.40;;;;;;;;;;5091481;28;20676;-72
2021/10/15 12:11:05;;;;;;;1.70;1.40;;;;;;;;;;5089500;28;20227;-71
2021/10/15 12:13:31;;;;;;;2.60;1.47;;;;;;;;;;5092257;28;20295;-72
2021/10/15 12:15:58;;;;;;;2.05;1.40;;;;;;;;;;5089926;28;20345;-73
2021/10/15 12:18:28;;;;;;;2.07;1.60;;;;;;;;;;5091302;28;20205;-72
2021/10/15 12:21:08;;;;;;;3.60;1.57;;;;;;;;;;5091125;28;20912;-71
2021/10/15 12:23:48;;;;;;;3.27;1.53;;;;;;;;;;5090633;28;20224;-71
2021/10/15 12:26:16;;;;;;;4.53;1.55;;;;;;;;;;5091880;28;20305;-73
2021/10/15 12:28:42;;;;;;;2.10;1.47;;;;;;;;;;5092041;28;20743;-72
2021/10/15 12:31:22;;;;;;;3.53;1.15;;;;;;;;;;5089962;28;20647;-72
2021/10/15 12:34:07;;;;;;;1.50;1.13;;;;;;;;;;5091570;28;20205;-72
2021/10/15 12:36:34;;;;;;;2.13;1.60;;;;;;;;;;5090629;28;20236;-72
2021/10/15 12:39:17;;;;;;;2.37;1.40;;;;;;;;;;5092001;28;20208;-71
2021/10/15 12:41:43;;;;;;;1.73;1.37;;;;;;;;;;5090829;28;20252;-72
2021/10/15 12:44:25;;;;;;;4.63;1.70;;;;;;;;;;5088983;28;20227;-73
2021/10/15 12:46:57;;;;;;;2.67;1.40;;;;;;;;;;5091356;28;20251;-72
2021/10/15 12:49:24;;;;;;;2.73;1.33;;;;;;;;;;5091055;28;20305;-72
2021/10/15 12:51:51;;;;;;;2.60;1.80;;;;;;;;;;5088707;28;20327;-72
2021/10/15 12:54:36;;;;;;;6.30;1.30;;;;;;;;;;5091161;28;20291;-71
2021/10/15 12:57:13;;;;;;;2.47;1.00;;;;;;;;;;5090755;28;20299;-70
2021/10/15 12:59:39;;;;;;;3.17;1.63;;;;;;;;;;5090457;28;20272;-72
2021/10/15 13:02:06;;;;;;;1.95;1.60;;;;;;;;;;5089952;28;20603;-70
2021/10/15 13:04:37;;;;;;;2.17;1.43;;;;;;;;;;5090546;28;20208;-71
2021/10/15 13:07:04;;;;;;;2.83;1.47;;;;;;;;;;5090697;28;20607;-71
2021/10/15 13:09:31;;;;;;;2.00;1.60;;;;;;;;;;5089725;28;20291;-72
2021/10/15 13:11:59;;;;;;;2.47;1.60;;;;;;;;;;5088878;28;20232;-70
2021/10/15 13:14:25;;;;;;;2.33;1.50;;;;;;;;;;5091063;28;20208;-73
2021/10/15 13:16:53;;;;;;;1.20;1.10;;;;;;;;;;5091398;28;20208;-73
2021/10/15 13:19:19;;;;;;;2.47;1.50;;;;;;;;;;5090948;28;20208;-74
2021/10/15 13:21:45;;;;;;;3.13;1.40;;;;;;;;;;5089322;28;20224;-73
2021/10/15 13:24:12;;;;;;;1.83;1.40;;;;;;;;;;5089449;28;20600;-71
2021/10/15 13:26:38;;;;;;;2.13;1.50;;;;;;;;;;5090793;28;20259;-72
2021/10/15 13:29:05;;;;;;;3.13;1.80;;;;;;;;;;5090816;28;20235;-71
2021/10/15 13:31:32;;;;;;;2.53;1.70;;;;;;;;;;5089865;28;20224;-73
2021/10/15 13:33:58;;;;;;;1.77;1.30;;;;;;;;;;5091038;28;20209;-73
2021/10/15 13:36:25;;;;;;;3.37;1.53;;;;;;;;;;5088845;28;20280;-73
2021/10/15 13:38:52;;;;;;;1.87;1.40;;;;;;;;;;5081697;28;20205;-71
2021/10/15 13:41:23;;;;;;;1.73;1.37;;;;;;;;;;5088056;28;20696;-71
2021/10/15 13:51:40;;;;;;;2.77;1.50;;;;;;;;;;5073587;28;20311;-72
2021/10/15 13:54:09;;;;;;;3.97;1.83;;;;;;;;;;5072842;28;20661;-71
2021/10/15 13:56:36;;;;;;;3.03;2.10;;;;;;;;;;5069730;28;20301;-73
2021/10/15 13:59:18;;;;;;;3.40;1.63;;;;;;;;;;5077817;28;20208;-70
2021/10/15 14:01:53;;;;;;;2.23;1.67;;;;;;;;;;5089640;28;20619;-73
2021/10/15 14:04:32;;;;;;;3.00;1.93;;;;;;;;;;5089034;28;20661;-72
2021/10/15 14:06:59;;;;;;;3.37;2.17;;;;;;;;;;5090271;28;20319;-71
2021/10/15 14:09:25;;;;;;;3.57;1.90;;;;;;;;;;5089889;28;20205;-71
2021/10/15 14:11:52;;;;;;;2.30;1.53;;;;;;;;;;5090100;28;20724;-72
2021/10/15 14:14:32;;;;;;;2.83;2.13;;;;;;;;;;5090344;28;20282;-72
2021/10/15 14:16:58;;;;;;;4.57;2.20;;;;;;;;;;5089333;28;20294;-72
2021/10/15 14:19:24;;;;;;;3.93;2.13;;;;;;;;;;5088552;28;20204;-73
2021/10/15 14:21:51;;;;;;;2.67;1.93;;;;;;;;;;5090411;28;20228;-72
2021/10/15 14:24:20;;;;;;;2.77;1.90;;;;;;;;;;5072030;28;20211;-72
2021/10/15 14:26:46;;;;;;;5.63;2.10;;;;;;;;;;5090320;28;20232;-72
2021/10/15 14:29:13;;;;;;;2.70;1.87;;;;;;;;;;5091585;28;20205;-72
2021/10/15 14:31:40;;;;;;;2.97;2.00;;;;;;;;;;5090493;28;20761;-72
2021/10/15 14:34:10;;;;;;;1.83;1.67;;;;;;;;;;5092069;28;20295;-72
2021/10/15 14:36:36;;;;;;;2.73;1.53;;;;;;;;;;5103839;28;20209;-72
2021/10/15 14:39:03;;;;;;;2.93;1.80;;;;;;;;;;5107841;28;20216;-71
2021/10/15 14:41:30;;;;;;;2.37;1.70;;;;;;;;;;5100151;28;20220;-72
2021/10/15 14:43:56;;;;;;;5.87;1.93;;;;;;;;;;5095691;28;20244;-71
2021/10/15 14:46:23;;;;;;;3.20;2.10;;;;;;;;;;5086780;28;20676;-72
2021/10/15 14:48:49;;;;;;;4.13;2.20;;;;;;;;;;5073877;28;20229;-72
2021/10/15 14:51:16;;;;;;;2.27;1.90;;;;;;;;;;5071917;28;20649;-73
2021/10/15 14:53:42;;;;;;;3.17;1.93;;;;;;;;;;5072935;28;20259;-72
2021/10/15 14:56:09;;;;;;;4.20;2.13;;;;;;;;;;5073320;28;20645;-72
2021/10/15 14:58:35;;;;;;;4.63;1.90;;;;;;;;;;5073614;28;20293;-73
2021/10/15 15:01:03;;;;;;;3.27;1.97;;;;;;;;;;5072896;28;20264;-72
2021/10/15 15:03:30;;;;;;;2.50;1.80;;;;;;;;;;5073018;28;20647;-72
2021/10/15 15:05:57;;;;;;;2.63;1.80;;;;;;;;;;5073716;28;20247;-72
2021/10/15 15:08:23;;;;;;;2.77;1.97;;;;;;;;;;5077162;28;20206;-72
2021/10/15 15:10:50;;;;;;;3.57;1.70;;;;;;;;;;5074563;28;20249;-71
2021/10/15 15:13:16;;;;;;;4.60;1.70;;;;;;;;;;5072967;28;20209;-71